Time;durP1;ratioP1;P1;durP2;ratioP2;P2;SDS_P1;SDS_P2;PMS_P1;PMS_P2;Temp;Humidity;BMP_temperature;BMP_pressure;BME280_temperature;BME280_humidity;BME280_pressure;Samples;Min_cycle;Max_cycle;Signal;HPM_P1;HPM_P2
2023/01/07 00:04:04;;;;;;;;;;;;;;;;;;5042500;28;6984;-77
2023/01/07 00:06:38;;;;;;;;;;;;;;;;;;5050308;28;6964;-77
2023/01/07 00:09:05;;;;;;;;;;;;;;;;;;5055920;28;7390;-77
2023/01/07 00:11:34;;;;;;;;;;;;;;;;;;5055818;28;6951;-77
2023/01/07 00:14:24;;;;;;;;;;;;;;;;;;5055235;28;7366;-77
2023/01/07 00:16:49;;;;;;;;;;;;;;;;;;5055361;28;7352;-77
2023/01/07 00:19:24;;;;;;;;;;;;;;;;;;5054795;28;7162;-77
2023/01/07 00:21:49;;;;;;;;;;;;;;;;;;5045005;28;7083;-77
2023/01/07 00:24:24;;;;;;;;;;;;;;;;;;5051806;28;7196;-77
2023/01/07 00:26:49;;;;;;;;;;;;;;;;;;5052668;28;7288;-77
2023/01/07 00:29:15;;;;;;;;;;;;;;;;;;5054738;28;7045;-77
2023/01/07 00:31:41;;;;;;;;;;;;;;;;;;5042227;28;7176;-77
2023/01/07 00:34:08;;;;;;;;;;;;;;;;;;5049991;28;6907;-77
2023/01/07 00:36:41;;;;;;;;;;;;;;;;;;5055273;28;7001;-77
2023/01/07 00:39:12;;;;;;;;;;;;;;;;;;5054815;28;7030;-77
2023/01/07 00:44:42;;;;;;;;;;;;;;;;;;5047712;28;6757;-77
2023/01/07 00:47:07;;;;;;;;;;;;;;;;;;5053643;28;7049;-77
2023/01/07 00:49:32;;;;;;;;;;;;;;;;;;5055005;28;7014;-77
2023/01/07 00:52:07;;;;;;;;;;;;;;;;;;5054756;28;7276;-77
2023/01/07 00:54:32;;;;;;;;;;;;;;;;;;5039827;28;7002;-77
2023/01/07 00:57:04;;;;;;;;;;;;;;;;;;5034949;28;6919;-77
2023/01/07 00:59:29;;;;;;;;;;;;;;;;;;5026975;28;7028;-77
2023/01/07 01:01:54;;;;;;;;;;;;;;;;;;5015040;28;6938;-77
2023/01/07 01:04:20;;;;;;;;;;;;;;;;;;5014952;28;7405;-77
2023/01/07 01:06:47;;;;;;;;;;;;;;;;;;5033478;28;7245;-77
2023/01/07 01:12:14;;;;;;;;;;;;;;;;;;5035495;28;7166;-77
2023/01/07 01:14:39;;;;;;;;;;;;;;;;;;5034972;28;7054;-77
2023/01/07 01:17:05;;;;;;;;;;;;;;;;;;5035086;28;7095;-77
2023/01/07 01:26:07;;;;;;;;;;;;;;;;;;5014834;28;7023;-77
2023/01/07 01:31:35;;;;;;;;;;;;;;;;;;5014758;28;6998;-77
2023/01/07 01:34:00;;;;;;;;;;;;;;;;;;5015126;28;7197;-77
2023/01/07 01:36:26;;;;;;;;;;;;;;;;;;5014953;28;7324;-77
2023/01/07 01:48:06;;;;;;;;;;;;;;;;;;5018608;28;6675;-77
2023/01/07 01:54:00;;;;;;;;;;;;;;;;;;5023584;28;6687;-77
2023/01/07 01:56:29;;;;;;;;;;;;;;;;;;5018831;28;6962;-77
2023/01/07 01:59:01;;;;;;;;;;;;;;;;;;5018662;28;7039;-77
2023/01/07 02:01:36;;;;;;;;;;;;;;;;;;5018532;28;7282;-77
2023/01/07 02:04:09;;;;;;;;;;;;;;;;;;5001046;28;8516;-77
2023/01/07 02:06:40;;;;;;;;;;;;;;;;;;5018687;28;7224;-77
2023/01/07 02:18:12;;;;;;;;;;;;;;;;;;5018423;28;6680;-77
2023/01/07 02:21:02;;;;;;;;;;;;;;;;;;5018489;28;7055;-77
2023/01/07 02:23:39;;;;;;;;;;;;;;;;;;5024074;28;7231;-77
2023/01/07 02:29:11;;;;;;;;;;;;;;;;;;5022171;28;7063;-77
2023/01/07 02:34:58;;;;;;;;;;;;;;;;;;5027873;28;6932;-77
2023/01/07 02:37:32;;;;;;;;;;;;;;;;;;5026372;28;7339;-77
2023/01/07 02:40:34;;;;;;;;;;;;;;;;;;5023760;28;7255;-77
2023/01/07 02:43:02;;;;;;;;;;;;;;;;;;5027908;28;7348;-77
2023/01/07 02:45:32;;;;;;;;;;;;;;;;;;5026342;28;7318;-77
2023/01/07 02:48:23;;;;;;;;;;;;;;;;;;5024502;28;7501;-77
2023/01/07 02:53:17;;;;;;;;;;;;;;;;;;5047688;28;6663;-77
2023/01/07 02:56:03;;;;;;;;;;;;;;;;;;5054366;28;7230;-77
2023/01/07 02:58:28;;;;;;;;;;;;;;;;;;5056466;28;7337;-77
2023/01/07 03:01:19;;;;;;;;;;;;;;;;;;5040446;28;7574;-77
2023/01/07 03:13:07;;;;;;;;;;;;;;;;;;4991268;28;6808;-77
2023/01/07 03:15:44;;;;;;;;;;;;;;;;;;4987996;28;7443;-77
2023/01/07 03:18:46;;;;;;;;;;;;;;;;;;4983088;28;7190;-77
2023/01/07 03:21:15;;;;;;;;;;;;;;;;;;4982391;28;7608;-77
2023/01/07 03:23:50;;;;;;;;;;;;;;;;;;4984655;28;7382;-77
2023/01/07 03:26:22;;;;;;;;;;;;;;;;;;4990111;28;7224;-77
2023/01/07 03:28:51;;;;;;;;;;;;;;;;;;4995245;28;7649;-77
2023/01/07 03:37:25;;;;;;;;;;;;;;;;;;5012025;28;7145;-77
2023/01/07 03:39:58;;;;;;;;;;;;;;;;;;5014907;28;7131;-77
2023/01/07 03:45:13;;;;;;;;;;;;;;;;;;5056630;28;6794;-77
2023/01/07 03:47:44;;;;;;;;;;;;;;;;;;5056554;28;7141;-77
2023/01/07 03:50:10;;;;;;;;;;;;;;;;;;5056021;28;7162;-77
2023/01/07 03:52:36;;;;;;;;;;;;;;;;;;5056042;28;7209;-77
2023/01/07 03:55:31;;;;;;;;;;;;;;;;;;5056247;28;7084;-77
2023/01/07 03:57:57;;;;;;;;;;;;;;;;;;5056999;28;7371;-77
2023/01/07 04:00:23;;;;;;;;;;;;;;;;;;5056244;28;7126;-77
2023/01/07 04:02:49;;;;;;;;;;;;;;;;;;5056020;28;7159;-77
2023/01/07 04:05:39;;;;;;;;;;;;;;;;;;5056138;28;7128;-77
2023/01/07 04:08:04;;;;;;;;;;;;;;;;;;5056397;28;6994;-77
2023/01/07 04:10:49;;;;;;;;;;;;;;;;;;5056374;28;7524;-77
2023/01/07 04:13:14;;;;;;;;;;;;;;;;;;5055527;28;7164;-77
2023/01/07 04:15:46;;;;;;;;;;;;;;;;;;5055900;28;7118;-77
2023/01/07 04:18:11;;;;;;;;;;;;;;;;;;5055792;28;7049;-77
2023/01/07 04:20:57;;;;;;;;;;;;;;;;;;5055526;28;7274;-77
2023/01/07 04:23:22;;;;;;;;;;;;;;;;;;5055403;28;6939;-77
2023/01/07 04:29:26;;;;;;;;;;;;;;;;;;5055379;28;6933;-77
2023/01/07 04:31:52;;;;;;;;;;;;;;;;;;5055632;28;7432;-77
2023/01/07 04:37:48;;;;;;;;;;;;;;;;;;5055288;28;7050;-77
2023/01/07 04:40:14;;;;;;;;;;;;;;;;;;5055138;28;6942;-77
2023/01/07 04:42:52;;;;;;;;;;;;;;;;;;5055342;28;7021;-77
2023/01/07 04:45:18;;;;;;;;;;;;;;;;;;5055359;28;7208;-77
2023/01/07 04:53:49;;;;;;;;;;;;;;;;;;5020945;28;7003;-77
2023/01/07 04:56:19;;;;;;;;;;;;;;;;;;5015370;28;7148;-77
2023/01/07 04:58:44;;;;;;;;;;;;;;;;;;5033651;28;7186;-77
2023/01/07 05:01:11;;;;;;;;;;;;;;;;;;5035245;28;7362;-77
2023/01/07 05:03:37;;;;;;;;;;;;;;;;;;5034792;28;7231;-77
2023/01/07 05:06:19;;;;;;;;;;;;;;;;;;5034609;28;7210;-77
2023/01/07 05:08:45;;;;;;;;;;;;;;;;;;5034852;28;7101;-77
2023/01/07 05:11:20;;;;;;;;;;;;;;;;;;5034920;28;7478;-77
2023/01/07 05:13:47;;;;;;;;;;;;;;;;;;5030113;28;7100;-77
2023/01/07 05:16:19;;;;;;;;;;;;;;;;;;5034449;28;8552;-76
2023/01/07 05:18:45;;;;;;;;;;;;;;;;;;5033128;28;7181;-76
2023/01/07 05:21:20;;;;;;;;;;;;;;;;;;5033506;28;7120;-76
2023/01/07 05:23:46;;;;;;;;;;;;;;;;;;5031480;28;6848;-76
2023/01/07 05:26:14;;;;;;;;;;;;;;;;;;5021588;28;7213;-76
2023/01/07 05:28:40;;;;;;;;;;;;;;;;;;5032305;28;6977;-77
2023/01/07 05:31:13;;;;;;;;;;;;;;;;;;5033691;28;7006;-77
2023/01/07 05:33:39;;;;;;;;;;;;;;;;;;5033945;28;6969;-77
2023/01/07 05:36:04;;;;;;;;;;;;;;;;;;5032594;28;7326;-77
2023/01/07 05:38:30;;;;;;;;;;;;;;;;;;5016485;28;7133;-77
2023/01/07 05:41:27;;;;;;;;;;;;;;;;;;5028116;28;7380;-77
2023/01/07 05:43:52;;;;;;;;;;;;;;;;;;5030196;28;7451;-77
2023/01/07 05:46:37;;;;;;;;;;;;;;;;;;5033196;28;7240;-77
2023/01/07 05:49:02;;;;;;;;;;;;;;;;;;5026397;28;7232;-77
2023/01/07 05:51:28;;;;;;;;;;;;;;;;;;4997209;28;8740;-77
2023/01/07 05:56:56;;;;;;;;;;;;;;;;;;5054187;28;7034;-77
2023/01/07 05:59:51;;;;;;;;;;;;;;;;;;5054478;28;7159;-77
2023/01/07 06:02:17;;;;;;;;;;;;;;;;;;5053935;28;8366;-77
2023/01/07 06:04:42;;;;;;;;;;;;;;;;;;5054356;28;7201;-77
2023/01/07 06:07:08;;;;;;;;;;;;;;;;;;5054235;28;7253;-77
2023/01/07 06:09:33;;;;;;;;;;;;;;;;;;5054098;28;7211;-77
2023/01/07 06:11:59;;;;;;;;;;;;;;;;;;5054246;28;7169;-77
2023/01/07 06:14:24;;;;;;;;;;;;;;;;;;5054047;28;6958;-77
2023/01/07 06:16:50;;;;;;;;;;;;;;;;;;5036267;28;8698;-77
2023/01/07 06:19:16;;;;;;;;;;;;;;;;;;5054244;28;7044;-77
2023/01/07 06:21:41;;;;;;;;;;;;;;;;;;5054276;28;7221;-77
2023/01/07 06:27:12;;;;;;;;;;;;;;;;;;5033912;28;6736;-77
2023/01/07 06:29:38;;;;;;;;;;;;;;;;;;5034229;28;7161;-77
2023/01/07 06:32:18;;;;;;;;;;;;;;;;;;5037465;28;6995;-77
2023/01/07 06:34:44;;;;;;;;;;;;;;;;;;5037827;28;7101;-77
2023/01/07 06:40:15;;;;;;;;;;;;;;;;;;5037301;28;7140;-77
2023/01/07 06:42:41;;;;;;;;;;;;;;;;;;5042128;28;8157;-77
2023/01/07 06:45:07;;;;;;;;;;;;;;;;;;5057265;28;7299;-77
2023/01/07 06:50:44;;;;;;;;;;;;;;;;;;5037315;28;6978;-77
2023/01/07 06:56:00;;;;;;;;;;;;;;;;;;5058266;28;6981;-77
2023/01/07 06:58:52;;;;;;;;;;;;;;;;;;5057355;28;7156;-77
2023/01/07 07:01:18;;;;;;;;;;;;;;;;;;5056846;28;8147;-77
2023/01/07 07:03:43;;;;;;;;;;;;;;;;;;5057324;28;7402;-77
2023/01/07 07:06:23;;;;;;;;;;;;;;;;;;5057452;28;7003;-77
2023/01/07 07:08:48;;;;;;;;;;;;;;;;;;5057192;28;7049;-76
2023/01/07 07:11:13;;;;;;;;;;;;;;;;;;5057123;28;6947;-77
2023/01/07 07:13:40;;;;;;;;;;;;;;;;;;5057002;28;6974;-76
2023/01/07 07:16:06;;;;;;;;;;;;;;;;;;5057046;28;6951;-77
2023/01/07 07:18:31;;;;;;;;;;;;;;;;;;5056909;28;7513;-77
2023/01/07 07:20:57;;;;;;;;;;;;;;;;;;5057310;28;6910;-77
2023/01/07 07:23:39;;;;;;;;;;;;;;;;;;5056714;28;7092;-77
2023/01/07 07:26:05;;;;;;;;;;;;;;;;;;5056925;28;7327;-77
2023/01/07 07:28:30;;;;;;;;;;;;;;;;;;5054737;28;7150;-77
2023/01/07 07:31:01;;;;;;;;;;;;;;;;;;5056547;28;7118;-77
2023/01/07 07:33:26;;;;;;;;;;;;;;;;;;5056527;28;7648;-77
2023/01/07 07:36:06;;;;;;;;;;;;;;;;;;5056768;28;7165;-77
2023/01/07 07:38:32;;;;;;;;;;;;;;;;;;5036798;28;7072;-77
2023/01/07 07:40:57;;;;;;;;;;;;;;;;;;5036526;28;7009;-77
2023/01/07 07:43:42;;;;;;;;;;;;;;;;;;5047461;28;7386;-77
2023/01/07 07:46:07;;;;;;;;;;;;;;;;;;5056471;28;7056;-77
2023/01/07 07:48:33;;;;;;;;;;;;;;;;;;5056586;28;7063;-77
2023/01/07 07:54:01;;;;;;;;;;;;;;;;;;5041196;28;6747;-77
2023/01/07 07:56:45;;;;;;;;;;;;;;;;;;5036121;28;6941;-77
2023/01/07 08:02:14;;;;;;;;;;;;;;;;;;5036161;28;6995;-77
2023/01/07 08:07:42;;;;;;;;;;;;;;;;;;5036038;28;6681;-77
2023/01/07 08:10:08;;;;;;;;;;;;;;;;;;5036213;28;7231;-77
2023/01/07 08:12:37;;;;;;;;;;;;;;;;;;5036007;28;7312;-77
2023/01/07 08:15:37;;;;;;;;;;;;;;;;;;5035792;28;6985;-77
2023/01/07 08:18:05;;;;;;;;;;;;;;;;;;5035874;28;8077;-77
2023/01/07 08:20:31;;;;;;;;;;;;;;;;;;5035877;28;7069;-77
2023/01/07 08:23:15;;;;;;;;;;;;;;;;;;5025398;28;7975;-77
2023/01/07 08:25:41;;;;;;;;;;;;;;;;;;5016293;28;7377;-77
2023/01/07 08:28:08;;;;;;;;;;;;;;;;;;5028124;28;8520;-77
2023/01/07 08:30:35;;;;;;;;;;;;;;;;;;5035675;28;7008;-77
2023/01/07 08:33:06;;;;;;;;;;;;;;;;;;5035732;28;7147;-77
2023/01/07 08:35:32;;;;;;;;;;;;;;;;;;5035870;28;7233;-77
2023/01/07 08:41:01;;;;;;;;;;;;;;;;;;5035287;28;6677;-77
2023/01/07 08:46:29;;;;;;;;;;;;;;;;;;5035508;28;6905;-77
2023/01/07 08:52:13;;;;;;;;;;;;;;;;;;5035301;28;7070;-77
2023/01/07 08:54:39;;;;;;;;;;;;;;;;;;5055648;28;7269;-77
2023/01/07 08:57:04;;;;;;;;;;;;;;;;;;5055167;28;7025;-77
2023/01/07 08:59:55;;;;;;;;;;;;;;;;;;5054887;28;6803;-77
2023/01/07 09:02:21;;;;;;;;;;;;;;;;;;5037137;28;7196;-77
2023/01/07 09:04:46;;;;;;;;;;;;;;;;;;5055172;28;6924;-77
2023/01/07 09:10:47;;;;;;;;;;;;;;;;;;5054895;28;6676;-77
2023/01/07 09:13:12;;;;;;;;;;;;;;;;;;5055253;28;7221;-77
2023/01/07 09:15:44;;;;;;;;;;;;;;;;;;5054925;28;7083;-77
2023/01/07 09:18:10;;;;;;;;;;;;;;;;;;5054843;28;7069;-77
2023/01/07 09:20:50;;;;;;;;;;;;;;;;;;5054759;28;7071;-77
2023/01/07 09:23:16;;;;;;;;;;;;;;;;;;5054652;28;7507;-77
2023/01/07 09:25:42;;;;;;;;;;;;;;;;;;5054746;28;7083;-77
2023/01/07 09:28:07;;;;;;;;;;;;;;;;;;5054873;28;7065;-78
2023/01/07 09:30:36;;;;;;;;;;;;;;;;;;5054575;28;7035;-78
2023/01/07 09:33:02;;;;;;;;;;;;;;;;;;5036200;28;7140;-76
2023/01/07 09:35:37;;;;;;;;;;;;;;;;;;5047957;28;7135;-77
2023/01/07 09:38:03;;;;;;;;;;;;;;;;;;5054667;28;7183;-77
2023/01/07 09:43:51;;;;;;;;;;;;;;;;;;5054444;28;7114;-77
2023/01/07 09:46:17;;;;;;;;;;;;;;;;;;5054904;28;7414;-78
2023/01/07 09:48:52;;;;;;;;;;;;;;;;;;5054829;28;7063;-77
2023/01/07 09:51:26;;;;;;;;;;;;;;;;;;5054422;28;7346;-77
2023/01/07 09:53:53;;;;;;;;;;;;;;;;;;5022993;28;7159;-77
2023/01/07 09:56:22;;;;;;;;;;;;;;;;;;5014140;28;7177;-77
2023/01/07 09:58:48;;;;;;;;;;;;;;;;;;5014680;28;7166;-77
2023/01/07 10:01:17;;;;;;;;;;;;;;;;;;5014397;28;6952;-77
2023/01/07 10:04:01;;;;;;;;;;;;;;;;;;5014703;28;7201;-77
2023/01/07 10:06:30;;;;;;;;;;;;;;;;;;5017346;28;7239;-77
2023/01/07 10:09:06;;;;;;;;;;;;;;;;;;5019710;28;7161;-77
2023/01/07 10:11:51;;;;;;;;;;;;;;;;;;5018582;28;7179;-77
2023/01/07 10:14:29;;;;;;;;;;;;;;;;;;5018939;28;7173;-77
2023/01/07 10:17:13;;;;;;;;;;;;;;;;;;5018480;28;7405;-77
2023/01/07 10:19:39;;;;;;;;;;;;;;;;;;5018427;28;7184;-77
2023/01/07 10:22:34;;;;;;;;;;;;;;;;;;5018850;28;7159;-77
2023/01/07 10:25:03;;;;;;;;;;;;;;;;;;5005594;28;7171;-77
2023/01/07 10:27:34;;;;;;;;;;;;;;;;;;5018337;28;7203;-77
2023/01/07 10:30:13;;;;;;;;;;;;;;;;;;5018013;28;7031;-77
2023/01/07 10:32:40;;;;;;;;;;;;;;;;;;5018345;28;7083;-77
2023/01/07 10:35:11;;;;;;;;;;;;;;;;;;5027442;28;6949;-77
2023/01/07 10:37:39;;;;;;;;;;;;;;;;;;5037757;28;7217;-77
2023/01/07 10:40:19;;;;;;;;;;;;;;;;;;5037584;28;7469;-77
2023/01/07 10:42:57;;;;;;;;;;;;;;;;;;5033339;28;7166;-77
2023/01/07 10:45:48;;;;;;;;;;;;;;;;;;5026222;28;7454;-78
2023/01/07 10:51:27;;;;;;;;;;;;;;;;;;5017825;28;6934;-77
2023/01/07 10:57:03;;;;;;;;;;;;;;;;;;5037282;28;6944;-78
2023/01/07 10:59:29;;;;;;;;;;;;;;;;;;5037792;28;7305;-78
2023/01/07 11:01:56;;;;;;;;;;;;;;;;;;5019446;28;8421;-78
2023/01/07 11:04:22;;;;;;;;;;;;;;;;;;5037402;28;7062;-78
2023/01/07 11:06:47;;;;;;;;;;;;;;;;;;5037244;28;7131;-78
2023/01/07 11:09:17;;;;;;;;;;;;;;;;;;5037848;28;7234;-78
2023/01/07 11:11:45;;;;;;;;;;;;;;;;;;5037292;28;6949;-78
2023/01/07 11:14:21;;;;;;;;;;;;;;;;;;5019955;28;7057;-78
2023/01/07 11:19:52;;;;;;;;;;;;;;;;;;5037047;28;6913;-78
2023/01/07 11:22:24;;;;;;;;;;;;;;;;;;5036988;28;7397;-78
2023/01/07 11:24:49;;;;;;;;;;;;;;;;;;5056729;28;6982;-78
2023/01/07 11:27:16;;;;;;;;;;;;;;;;;;5056777;28;6972;-78
2023/01/07 11:32:56;;;;;;;;;;;;;;;;;;5056538;28;7073;-78
2023/01/07 11:35:22;;;;;;;;;;;;;;;;;;5056615;28;6917;-78
2023/01/07 11:37:50;;;;;;;;;;;;;;;;;;5056580;28;6991;-78
2023/01/07 11:40:18;;;;;;;;;;;;;;;;;;5056653;28;7081;-78
2023/01/07 11:43:00;;;;;;;;;;;;;;;;;;5056285;28;7016;-78
2023/01/07 11:45:25;;;;;;;;;;;;;;;;;;5056245;28;7337;-77
2023/01/07 11:48:22;;;;;;;;;;;;;;;;;;5055908;28;7380;-77
2023/01/07 11:51:20;;;;;;;;;;;;;;;;;;5026439;28;9306;-77
2023/01/07 11:53:49;;;;;;;;;;;;;;;;;;5055637;28;7230;-77
2023/01/07 11:56:20;;;;;;;;;;;;;;;;;;5056333;28;7463;-79
2023/01/07 11:59:04;;;;;;;;;;;;;;;;;;5056793;28;7380;-78
2023/01/07 12:07:35;;;;;;;;;;;;;;;;;;5056151;28;6697;-78
2023/01/07 12:16:10;;;;;;;;;;;;;;;;;;5055945;28;6891;-78
2023/01/07 12:19:04;;;;;;;;;;;;;;;;;;5056635;28;7078;-78
2023/01/07 12:21:30;;;;;;;;;;;;;;;;;;5055519;28;6974;-77
2023/01/07 12:24:14;;;;;;;;;;;;;;;;;;5045627;28;7054;-77
2023/01/07 12:26:49;;;;;;;;;;;;;;;;;;5036199;28;7392;-77
2023/01/07 12:29:24;;;;;;;;;;;;;;;;;;5038935;28;6963;-77
2023/01/07 12:32:06;;;;;;;;;;;;;;;;;;5036107;28;7156;-77
2023/01/07 12:34:31;;;;;;;;;;;;;;;;;;5047302;28;7404;-77
2023/01/07 12:37:02;;;;;;;;;;;;;;;;;;5055583;28;7039;-77
2023/01/07 12:39:35;;;;;;;;;;;;;;;;;;5055477;28;7054;-77
2023/01/07 12:42:36;;;;;;;;;;;;;;;;;;5055346;28;6925;-77
2023/01/07 12:45:05;;;;;;;;;;;;;;;;;;4994811;28;7446;-77
2023/01/07 12:47:35;;;;;;;;;;;;;;;;;;4994158;28;7298;-77
2023/01/07 12:50:11;;;;;;;;;;;;;;;;;;4994187;28;7312;-77
2023/01/07 12:52:46;;;;;;;;;;;;;;;;;;5009207;28;8425;-77
2023/01/07 12:55:16;;;;;;;;;;;;;;;;;;4994088;28;7002;-77
2023/01/07 12:57:45;;;;;;;;;;;;;;;;;;4994049;28;6975;-77
2023/01/07 13:00:11;;;;;;;;;;;;;;;;;;4994124;28;7127;-77
2023/01/07 13:02:59;;;;;;;;;;;;;;;;;;4993827;28;7394;-77
2023/01/07 13:05:36;;;;;;;;;;;;;;;;;;4988182;28;7208;-77
2023/01/07 13:08:11;;;;;;;;;;;;;;;;;;4993865;28;7423;-77
2023/01/07 13:10:41;;;;;;;;;;;;;;;;;;4993643;28;6869;-77
2023/01/07 13:13:17;;;;;;;;;;;;;;;;;;4993552;28;7343;-77
2023/01/07 13:15:43;;;;;;;;;;;;;;;;;;4993730;28;6951;-77
2023/01/07 13:18:16;;;;;;;;;;;;;;;;;;4983628;28;8733;-77
2023/01/07 13:20:47;;;;;;;;;;;;;;;;;;5034750;28;6967;-77
2023/01/07 13:23:19;;;;;;;;;;;;;;;;;;5017248;28;8587;-77
2023/01/07 13:26:07;;;;;;;;;;;;;;;;;;5035934;28;7423;-77
2023/01/07 13:28:35;;;;;;;;;;;;;;;;;;5047995;28;7416;-77
2023/01/07 13:31:20;;;;;;;;;;;;;;;;;;5054197;28;6927;-77
2023/01/07 13:34:03;;;;;;;;;;;;;;;;;;5047914;28;7414;-77
2023/01/07 13:36:37;;;;;;;;;;;;;;;;;;5054546;28;7128;-77
2023/01/07 13:39:19;;;;;;;;;;;;;;;;;;5054856;28;7374;-77
2023/01/07 13:41:56;;;;;;;;;;;;;;;;;;5053767;28;7174;-77
2023/01/07 13:44:24;;;;;;;;;;;;;;;;;;5054590;28;7181;-77
2023/01/07 13:46:50;;;;;;;;;;;;;;;;;;5054684;28;7436;-77
2023/01/07 13:49:25;;;;;;;;;;;;;;;;;;5054583;28;7236;-77
2023/01/07 13:51:51;;;;;;;;;;;;;;;;;;5050972;28;7426;-77
2023/01/07 13:54:35;;;;;;;;;;;;;;;;;;5045570;28;7355;-77
2023/01/07 14:00:29;;;;;;;;;;;;;;;;;;5054277;28;6777;-77
2023/01/07 14:02:56;;;;;;;;;;;;;;;;;;5054174;28;7219;-77
2023/01/07 14:05:22;;;;;;;;;;;;;;;;;;5054318;28;7059;-77
2023/01/07 14:07:50;;;;;;;;;;;;;;;;;;5054463;28;6950;-77
2023/01/07 14:10:28;;;;;;;;;;;;;;;;;;5053885;28;7144;-77
2023/01/07 14:13:12;;;;;;;;;;;;;;;;;;5053972;28;7407;-77
2023/01/07 14:15:48;;;;;;;;;;;;;;;;;;5054338;28;7247;-76
2023/01/07 14:18:32;;;;;;;;;;;;;;;;;;5055091;28;6914;-77
2023/01/07 14:21:00;;;;;;;;;;;;;;;;;;5054798;28;7066;-77
2023/01/07 14:27:06;;;;;;;;;;;;;;;;;;5024174;28;6927;-77
2023/01/07 14:29:31;;;;;;;;;;;;;;;;;;5054146;28;7194;-77
2023/01/07 14:32:20;;;;;;;;;;;;;;;;;;5053940;28;7051;-77
2023/01/07 14:35:15;;;;;;;;;;;;;;;;;;5043428;28;7709;-77
2023/01/07 14:37:48;;;;;;;;;;;;;;;;;;4978846;28;7237;-77
2023/01/07 14:40:26;;;;;;;;;;;;;;;;;;5052009;28;7241;-77
2023/01/07 14:42:53;;;;;;;;;;;;;;;;;;5052439;28;7511;-77
2023/01/07 14:45:50;;;;;;;;;;;;;;;;;;5029275;28;7249;-77
2023/01/07 14:48:16;;;;;;;;;;;;;;;;;;5012823;28;7085;-77
2023/01/07 14:50:44;;;;;;;;;;;;;;;;;;5035588;28;7114;-77
2023/01/07 14:53:26;;;;;;;;;;;;;;;;;;5034644;28;7173;-77
2023/01/07 14:56:03;;;;;;;;;;;;;;;;;;5029022;28;7442;-77
2023/01/07 14:58:54;;;;;;;;;;;;;;;;;;5037592;28;7096;-77
2023/01/07 15:01:27;;;;;;;;;;;;;;;;;;5017850;28;7220;-77
2023/01/07 15:04:11;;;;;;;;;;;;;;;;;;5028174;28;7050;-77
2023/01/07 15:06:39;;;;;;;;;;;;;;;;;;5037290;28;7218;-77
2023/01/07 15:17:49;;;;;;;;;;;;;;;;;;5030455;28;6970;-77
2023/01/07 15:20:15;;;;;;;;;;;;;;;;;;5031521;28;7089;-77
2023/01/07 15:22:53;;;;;;;;;;;;;;;;;;5036654;28;7141;-77
2023/01/07 15:25:27;;;;;;;;;;;;;;;;;;5037063;28;7391;-77
2023/01/07 15:27:55;;;;;;;;;;;;;;;;;;5036731;28;7390;-77
2023/01/07 15:30:24;;;;;;;;;;;;;;;;;;5036954;28;7072;-77
2023/01/07 15:33:01;;;;;;;;;;;;;;;;;;5036961;28;6863;-77
2023/01/07 15:35:38;;;;;;;;;;;;;;;;;;5036622;28;6964;-77
2023/01/07 15:38:24;;;;;;;;;;;;;;;;;;5036819;28;6968;-77
2023/01/07 15:40:49;;;;;;;;;;;;;;;;;;5036677;28;7165;-77
2023/01/07 15:43:21;;;;;;;;;;;;;;;;;;5036991;28;7228;-77
2023/01/07 15:45:48;;;;;;;;;;;;;;;;;;5024364;28;8239;-77
2023/01/07 15:48:14;;;;;;;;;;;;;;;;;;5035466;28;7190;-77
2023/01/07 15:50:44;;;;;;;;;;;;;;;;;;5036568;28;7076;-77
2023/01/07 15:53:09;;;;;;;;;;;;;;;;;;5036549;28;6996;-77
2023/01/07 15:55:41;;;;;;;;;;;;;;;;;;5036531;28;7054;-77
2023/01/07 15:58:32;;;;;;;;;;;;;;;;;;5036770;28;7203;-77
2023/01/07 16:01:00;;;;;;;;;;;;;;;;;;5036281;28;7060;-77
2023/01/07 16:03:27;;;;;;;;;;;;;;;;;;5035881;28;7207;-77
2023/01/07 16:05:54;;;;;;;;;;;;;;;;;;5036123;28;7689;-77
2023/01/07 16:08:28;;;;;;;;;;;;;;;;;;5036298;28;7052;-77
2023/01/07 16:10:56;;;;;;;;;;;;;;;;;;5036307;28;7185;-77
2023/01/07 16:13:22;;;;;;;;;;;;;;;;;;5036037;28;7434;-77
2023/01/07 16:15:52;;;;;;;;;;;;;;;;;;5036191;28;7158;-77
2023/01/07 16:18:19;;;;;;;;;;;;;;;;;;5034805;28;9161;-77
2023/01/07 16:20:51;;;;;;;;;;;;;;;;;;5036062;28;7133;-77
2023/01/07 16:23:25;;;;;;;;;;;;;;;;;;5035870;28;7087;-77
2023/01/07 16:25:59;;;;;;;;;;;;;;;;;;5026525;28;7140;-77
2023/01/07 16:28:28;;;;;;;;;;;;;;;;;;5034352;28;7275;-77
2023/01/07 16:30:56;;;;;;;;;;;;;;;;;;5036125;28;6947;-77
2023/01/07 16:33:24;;;;;;;;;;;;;;;;;;5035634;28;7126;-77
2023/01/07 16:35:52;;;;;;;;;;;;;;;;;;5036041;28;7089;-77
2023/01/07 16:38:19;;;;;;;;;;;;;;;;;;5035653;28;7057;-77
2023/01/07 16:40:46;;;;;;;;;;;;;;;;;;5035514;28;6940;-77
2023/01/07 16:43:28;;;;;;;;;;;;;;;;;;5035569;28;7193;-77
2023/01/07 16:46:07;;;;;;;;;;;;;;;;;;5027453;28;7399;-77
2023/01/07 16:48:32;;;;;;;;;;;;;;;;;;5015671;28;7183;-77
2023/01/07 16:50:58;;;;;;;;;;;;;;;;;;5015752;28;7045;-77
2023/01/07 16:53:25;;;;;;;;;;;;;;;;;;5015339;28;7125;-77
2023/01/07 16:55:53;;;;;;;;;;;;;;;;;;5015440;28;7429;-77
2023/01/07 16:58:28;;;;;;;;;;;;;;;;;;5025061;28;7106;-77
2023/01/07 17:00:56;;;;;;;;;;;;;;;;;;5035196;28;7028;-77
2023/01/07 17:03:23;;;;;;;;;;;;;;;;;;5035169;28;7152;-77
2023/01/07 17:06:01;;;;;;;;;;;;;;;;;;5034804;28;6957;-77
2023/01/07 17:08:29;;;;;;;;;;;;;;;;;;5035146;28;7106;-77
2023/01/07 17:10:57;;;;;;;;;;;;;;;;;;5035152;28;6985;-77
2023/01/07 17:13:22;;;;;;;;;;;;;;;;;;5034683;28;7037;-77
2023/01/07 17:15:48;;;;;;;;;;;;;;;;;;5034131;28;7026;-77
2023/01/07 17:18:13;;;;;;;;;;;;;;;;;;5034420;28;7137;-77
2023/01/07 17:20:45;;;;;;;;;;;;;;;;;;5034728;28;7564;-77
2023/01/07 17:23:25;;;;;;;;;;;;;;;;;;5035409;28;7229;-77
2023/01/07 17:26:06;;;;;;;;;;;;;;;;;;5032585;28;7429;-77
2023/01/07 17:28:53;;;;;;;;;;;;;;;;;;5034285;28;7498;-77
2023/01/07 17:31:19;;;;;;;;;;;;;;;;;;5034315;28;7162;-77
2023/01/07 17:33:44;;;;;;;;;;;;;;;;;;5034475;28;7008;-77
2023/01/07 17:36:15;;;;;;;;;;;;;;;;;;5034168;28;7150;-77
2023/01/07 17:38:40;;;;;;;;;;;;;;;;;;5034746;28;7359;-77
2023/01/07 17:43:32;;;;;;;;;;;;;;;;;;5030772;28;7302;-77
2023/01/07 17:43:54;;;;;;;;;;;;;;;;;;5015335;28;7229;-77
2023/01/07 17:46:19;;;;;;;;;;;;;;;;;;5019577;28;7110;-77
2023/01/07 17:48:45;;;;;;;;;;;;;;;;;;5034612;28;7062;-77
2023/01/07 17:51:11;;;;;;;;;;;;;;;;;;5034735;28;7307;-77
2023/01/07 17:53:48;;;;;;;;;;;;;;;;;;5034145;28;7348;-77
2023/01/07 17:56:13;;;;;;;;;;;;;;;;;;5034108;28;6953;-77
2023/01/07 17:58:43;;;;;;;;;;;;;;;;;;5034600;28;7129;-77
2023/01/07 18:01:14;;;;;;;;;;;;;;;;;;5034484;28;7447;-77
2023/01/07 18:03:40;;;;;;;;;;;;;;;;;;5034811;28;7088;-77
2023/01/07 18:06:14;;;;;;;;;;;;;;;;;;5034462;28;7165;-77
2023/01/07 18:08:40;;;;;;;;;;;;;;;;;;5034160;28;7179;-77
2023/01/07 18:13:49;;;;;;;;;;;;;;;;;;5018758;28;6814;-77
2023/01/07 18:16:15;;;;;;;;;;;;;;;;;;5014599;28;7278;-77
2023/01/07 18:18:41;;;;;;;;;;;;;;;;;;5014615;28;7385;-77
2023/01/07 18:21:10;;;;;;;;;;;;;;;;;;5014503;28;6866;-77
2023/01/07 18:23:35;;;;;;;;;;;;;;;;;;5014717;28;6952;-77
2023/01/07 18:26:04;;;;;;;;;;;;;;;;;;5014842;28;7394;-77
2023/01/07 18:28:30;;;;;;;;;;;;;;;;;;5018386;28;7140;-77
2023/01/07 18:30:56;;;;;;;;;;;;;;;;;;5017978;28;6931;-77
2023/01/07 18:33:22;;;;;;;;;;;;;;;;;;5018202;28;7463;-77
2023/01/07 18:35:47;;;;;;;;;;;;;;;;;;5018301;28;7174;-77
2023/01/07 18:38:14;;;;;;;;;;;;;;;;;;5018061;28;7150;-77
2023/01/07 18:40:40;;;;;;;;;;;;;;;;;;5017829;28;7391;-77
2023/01/07 18:43:06;;;;;;;;;;;;;;;;;;5018073;28;7195;-77
2023/01/07 18:45:31;;;;;;;;;;;;;;;;;;5018407;28;7232;-77
2023/01/07 18:48:10;;;;;;;;;;;;;;;;;;5032410;28;6911;-77
2023/01/07 18:50:39;;;;;;;;;;;;;;;;;;5038058;28;7250;-77
2023/01/07 18:53:05;;;;;;;;;;;;;;;;;;5037695;28;7111;-77
2023/01/07 18:55:30;;;;;;;;;;;;;;;;;;5037327;28;6971;-77
2023/01/07 18:57:56;;;;;;;;;;;;;;;;;;5037605;28;7308;-77
2023/01/07 19:00:22;;;;;;;;;;;;;;;;;;5037201;28;8720;-77
2023/01/07 19:02:47;;;;;;;;;;;;;;;;;;5037330;28;7128;-77
2023/01/07 19:05:13;;;;;;;;;;;;;;;;;;5037480;28;7160;-77
2023/01/07 19:07:40;;;;;;;;;;;;;;;;;;5037467;28;7152;-77
2023/01/07 19:10:06;;;;;;;;;;;;;;;;;;5037261;28;7592;-77
2023/01/07 19:12:31;;;;;;;;;;;;;;;;;;5032982;28;7121;-77
2023/01/07 19:14:57;;;;;;;;;;;;;;;;;;5017458;28;7197;-77
2023/01/07 19:17:23;;;;;;;;;;;;;;;;;;4999892;28;8425;-77
2023/01/07 19:19:48;;;;;;;;;;;;;;;;;;5035824;28;7174;-77
2023/01/07 19:22:15;;;;;;;;;;;;;;;;;;5036887;28;7132;-77
2023/01/07 19:24:40;;;;;;;;;;;;;;;;;;5035430;28;7157;-77
2023/01/07 19:27:06;;;;;;;;;;;;;;;;;;5022508;28;7201;-77
2023/01/07 19:29:32;;;;;;;;;;;;;;;;;;5035242;28;7228;-77
2023/01/07 19:31:57;;;;;;;;;;;;;;;;;;5019611;28;7389;-77
2023/01/07 19:34:24;;;;;;;;;;;;;;;;;;5034415;28;6946;-77
2023/01/07 19:36:49;;;;;;;;;;;;;;;;;;5036905;28;7090;-77
2023/01/07 19:39:16;;;;;;;;;;;;;;;;;;5036032;28;7320;-77
2023/01/07 19:41:42;;;;;;;;;;;;;;;;;;5036643;28;7725;-77
2023/01/07 19:44:08;;;;;;;;;;;;;;;;;;5033698;28;7018;-77
2023/01/07 19:46:35;;;;;;;;;;;;;;;;;;5028919;28;7107;-77
2023/01/07 19:49:01;;;;;;;;;;;;;;;;;;5016814;28;7358;-77
2023/01/07 19:51:26;;;;;;;;;;;;;;;;;;5017562;28;7171;-77
2023/01/07 19:53:52;;;;;;;;;;;;;;;;;;5016450;28;7122;-77
2023/01/07 19:56:17;;;;;;;;;;;;;;;;;;5016468;28;7008;-77
2023/01/07 19:58:42;;;;;;;;;;;;;;;;;;5016358;28;7951;-77
2023/01/07 20:01:14;;;;;;;;;;;;;;;;;;5016504;28;7133;-77
2023/01/07 20:03:40;;;;;;;;;;;;;;;;;;5016497;28;7272;-77
2023/01/07 20:06:10;;;;;;;;;;;;;;;;;;5016686;28;7456;-77
2023/01/07 20:08:37;;;;;;;;;;;;;;;;;;5016216;28;7019;-77
2023/01/07 20:11:02;;;;;;;;;;;;;;;;;;5016840;28;7033;-77
2023/01/07 20:13:32;;;;;;;;;;;;;;;;;;5016294;28;6988;-77